Terminal Aerodrome Forecast
Issued by NWS Twin Cities, MN

Home | Current Version | Previous Version | Graphics & Text | Print | Product List | Glossary On
Versions: 1 2 3 4 5 6 7 8 9 10 11 12 13 14 15 16 17 18 19 20 21 22 23 24
000
FTUS43 KMPX 310944 AAA
TAFMSP
TAF AMD
KMSP 310944Z 3110/0112 08008KT P6SM SKC
     FM311200 10008KT P6SM FEW250
     FM311800 10009KT P6SM BKN150
     FM010000 10008KT P6SM BKN100
     FM010600 12007KT P6SM SCT250=

USA.gov is the U.S. government's official web portal to all federal, state and local government web resources and services.